Time;durP1;ratioP1;P1;durP2;ratioP2;P2;SDS_P1;SDS_P2;PMS_P1;PMS_P2;Temp;Humidity;BMP_temperature;BMP_pressure;BME280_temperature;BME280_humidity;BME280_pressure;Samples;Min_cycle;Max_cycle;Signal;HPM_P1;HPM_P2
2023/01/03 00:00:51;;;;;;;5.53;1.90;;;9.10;99.90;;;;;;4913883;29;20024;-82
2023/01/03 00:03:16;;;;;;;5.00;1.80;;;9.10;99.90;;;;;;4921209;29;20457;-85
2023/01/03 00:05:44;;;;;;;2.40;1.88;;;9.10;99.90;;;;;;4925030;29;20031;-84
2023/01/03 00:08:10;;;;;;;9.85;1.80;;;9.10;99.90;;;;;;4923316;29;20023;-85
2023/01/03 00:10:36;;;;;;;4.25;2.00;;;9.10;99.90;;;;;;4925170;29;20437;-84
2023/01/03 00:13:01;;;;;;;5.97;2.15;;;9.00;99.90;;;;;;4921748;29;20055;-82
2023/01/03 00:15:27;;;;;;;7.55;2.50;;;9.00;99.90;;;;;;4920084;29;20020;-82
2023/01/03 00:17:55;;;;;;;4.45;1.90;;;9.00;99.90;;;;;;4926315;29;20132;-83
2023/01/03 00:20:21;;;;;;;6.13;2.20;;;8.90;99.90;;;;;;4923205;29;20028;-85
2023/01/03 00:22:47;;;;;;;2.92;1.88;;;8.90;99.90;;;;;;4930524;29;20034;-84
2023/01/03 00:25:13;;;;;;;3.17;1.90;;;8.80;99.90;;;;;;4923147;29;20028;-86
2023/01/03 00:27:38;;;;;;;4.78;1.73;;;8.80;99.90;;;;;;4929467;29;20033;-83
2023/01/03 00:30:04;;;;;;;7.10;1.95;;;8.70;99.90;;;;;;4929896;29;20385;-84
2023/01/03 00:32:30;;;;;;;5.60;1.67;;;8.70;99.90;;;;;;4929910;29;20445;-83
2023/01/03 00:34:56;;;;;;;2.15;1.90;;;8.70;99.90;;;;;;4929359;29;20053;-84
2023/01/03 00:37:21;;;;;;;7.75;1.65;;;8.70;99.90;;;;;;4924774;29;20028;-84
2023/01/03 00:39:47;;;;;;;2.33;1.40;;;8.70;99.90;;;;;;4925668;29;20039;-83
2023/01/03 00:42:12;;;;;;;2.15;1.17;;;8.60;99.90;;;;;;4927861;29;20071;-83
2023/01/03 00:44:38;;;;;;;2.15;1.33;;;8.70;99.90;;;;;;4928775;29;20030;-84
2023/01/03 00:47:04;;;;;;;2.45;1.20;;;8.60;99.90;;;;;;4927207;29;20523;-85
2023/01/03 00:49:30;;;;;;;2.95;1.50;;;8.60;99.90;;;;;;4923475;29;20047;-83
2023/01/03 00:51:55;;;;;;;1.80;1.40;;;8.50;99.90;;;;;;4930059;29;20384;-83
2023/01/03 00:54:21;;;;;;;5.85;1.45;;;8.50;99.90;;;;;;4930934;29;20027;-84
2023/01/03 00:56:48;;;;;;;3.22;1.13;;;8.50;99.90;;;;;;4921871;29;20027;-83
2023/01/03 00:59:15;;;;;;;1.13;1.10;;;8.50;99.90;;;;;;4931726;29;20030;-83
2023/01/03 01:01:51;;;;;;;3.40;1.33;;;8.50;99.90;;;;;;4926944;29;20032;-83
2023/01/03 01:04:22;;;;;;;1.77;1.27;;;8.50;99.90;;;;;;4921543;29;20026;-83
2023/01/03 01:06:51;;;;;;;1.05;1.05;;;8.50;99.90;;;;;;4922154;29;20069;-84
2023/01/03 01:09:22;;;;;;;2.00;1.25;;;8.60;99.90;;;;;;4928221;29;20122;-84
2023/01/03 01:11:48;;;;;;;1.77;1.45;;;8.50;99.90;;;;;;4931311;29;20024;-84
2023/01/03 01:14:24;;;;;;;5.65;1.85;;;8.50;99.90;;;;;;4924183;29;20059;-84
2023/01/03 01:16:59;;;;;;;;;;;8.50;99.90;;;;;;4928843;29;20032;-85
2023/01/03 01:19:30;;;;;;;2.75;1.50;;;8.60;99.90;;;;;;4926948;29;19906;-84
2023/01/03 01:21:57;;;;;;;2.05;1.70;;;8.50;99.90;;;;;;4925601;29;20123;-84
2023/01/03 01:24:23;;;;;;;6.75;1.88;;;8.60;99.90;;;;;;4923111;29;20027;-85
2023/01/03 01:26:49;;;;;;;2.38;1.55;;;8.50;99.90;;;;;;4922108;29;20031;-84
2023/01/03 01:29:16;;;;;;;1.50;1.40;;;8.60;99.90;;;;;;4926669;29;20424;-84
2023/01/03 01:31:42;;;;;;;4.55;2.55;;;8.60;99.90;;;;;;4926353;29;20516;-86
2023/01/03 01:34:08;;;;;;;4.53;2.00;;;8.50;99.90;;;;;;4925507;29;20051;-85
2023/01/03 01:36:36;;;;;;;2.17;1.80;;;8.50;99.90;;;;;;4927566;29;20024;-85
2023/01/03 01:39:24;;;;;;;1.60;1.42;;;8.50;99.90;;;;;;4925905;29;20055;-84
2023/01/03 01:44:59;;;;;;;3.85;2.05;;;8.40;99.90;;;;;;4914256;29;20505;-85
2023/01/03 01:47:46;;;;;;;2.78;2.30;;;8.40;99.90;;;;;;4927974;29;20301;-84
2023/01/03 01:50:37;;;;;;;2.47;2.25;;;8.30;99.90;;;;;;4926359;29;20377;-83
2023/01/03 01:53:11;;;;;;;3.80;2.30;;;8.30;99.90;;;;;;4921573;29;20040;-84
2023/01/03 01:55:45;;;;;;;2.92;2.45;;;8.30;99.90;;;;;;4924688;29;20042;-84
2023/01/03 01:58:11;;;;;;;7.78;2.50;;;8.30;99.90;;;;;;4922169;29;20038;-83
2023/01/03 02:00:39;;;;;;;3.08;2.00;;;8.30;99.90;;;;;;4925270;29;20520;-84
2023/01/03 02:03:05;;;;;;;7.00;3.05;;;8.30;99.90;;;;;;4925745;29;20035;-84
2023/01/03 02:05:35;;;;;;;3.00;2.60;;;8.30;99.90;;;;;;4926305;29;20504;-84
2023/01/03 02:08:03;;;;;;;3.15;2.50;;;8.30;99.90;;;;;;4928892;28;20039;-81
2023/01/03 02:11:05;;;;;;;4.43;2.33;;;8.20;99.90;;;;;;4922966;29;20501;-84
2023/01/03 02:13:41;;;;;;;3.83;2.80;;;8.20;99.90;;;;;;4926678;29;20062;-83
2023/01/03 02:16:39;;;;;;;4.00;2.13;;;8.20;99.90;;;;;;4925300;29;20046;-83
2023/01/03 02:19:38;;;;;;;3.63;2.40;;;8.20;99.90;;;;;;4923978;29;20083;-83
2023/01/03 02:22:21;;;;;;;5.90;2.40;;;8.20;99.90;;;;;;4922373;29;20034;-83
2023/01/03 02:25:14;;;;;;;4.82;2.40;;;8.20;99.90;;;;;;4924356;29;20393;-83
2023/01/03 02:28:17;;;;;;;3.15;2.22;;;8.10;99.90;;;;;;4928958;29;20032;-83
2023/01/03 02:31:01;;;;;;;3.22;2.67;;;8.10;99.90;;;;;;4922243;29;20569;-83
2023/01/03 02:33:36;;;;;;;2.58;2.08;;;8.20;99.90;;;;;;4920144;29;20106;-83
2023/01/03 02:36:17;;;;;;;8.13;2.65;;;8.20;99.90;;;;;;4927070;29;20043;-84
2023/01/03 02:39:06;;;;;;;7.90;2.95;;;8.20;99.90;;;;;;4923353;29;20094;-83
2023/01/03 02:41:45;;;;;;;2.70;2.40;;;8.20;99.90;;;;;;4921487;29;20039;-84
2023/01/03 02:44:13;;;;;;;5.35;3.22;;;8.20;99.90;;;;;;4926051;29;20020;-84
2023/01/03 02:46:54;;;;;;;5.15;3.35;;;8.20;99.90;;;;;;4923247;29;20532;-83
2023/01/03 02:49:54;;;;;;;5.43;3.50;;;8.20;99.90;;;;;;4926511;29;20345;-84
2023/01/03 02:52:27;;;;;;;6.82;4.03;;;8.30;99.90;;;;;;4924372;29;20055;-84
2023/01/03 02:55:03;;;;;;;7.72;3.80;;;8.30;99.90;;;;;;4925093;29;20060;-83
2023/01/03 02:57:39;;;;;;;4.93;3.20;;;8.20;99.90;;;;;;4926401;29;20079;-84
2023/01/03 03:00:13;;;;;;;7.35;3.80;;;8.20;99.90;;;;;;4926506;29;20515;-85
2023/01/03 03:02:44;;;;;;;9.95;4.55;;;8.20;99.90;;;;;;4925397;29;20047;-88
2023/01/03 03:05:14;;;;;;;6.22;3.97;;;8.20;99.90;;;;;;4923587;29;20024;-83
2023/01/03 03:07:39;;;;;;;11.93;4.97;;;8.10;99.90;;;;;;4924766;29;20226;-83
2023/01/03 03:13:29;;;;;;;13.02;5.00;;;8.10;99.90;;;;;;4920905;29;20043;-84
2023/01/03 03:15:56;;;;;;;9.65;5.60;;;8.10;99.90;;;;;;4922858;29;20059;-85
2023/01/03 03:18:41;;;;;;;9.50;4.70;;;8.10;99.90;;;;;;4927989;29;20152;-84
2023/01/03 03:24:48;;;;;;;7.30;4.60;;;8.00;99.90;;;;;;4919276;29;20322;-84
2023/01/03 03:28:33;;;;;;;7.53;4.53;;;8.00;99.90;;;;;;4922548;29;20016;-84
2023/01/03 03:29:57;;;;;;;6.60;4.78;;;8.00;99.90;;;;;;4926164;29;20040;-85
2023/01/03 03:32:25;;;;;;;12.15;5.20;;;8.00;99.90;;;;;;4926129;29;20042;-86
2023/01/03 03:34:54;;;;;;;11.02;3.97;;;8.00;99.90;;;;;;4925356;29;20084;-84
2023/01/03 03:37:23;;;;;;;11.50;4.15;;;8.00;99.90;;;;;;4919401;29;20483;-84
2023/01/03 03:46:04;;;;;;;6.05;4.18;;;8.00;99.90;;;;;;4921153;29;20043;-83
2023/01/03 03:51:28;;;;;;;;;;;8.00;99.90;;;;;;4928329;29;20126;-82
2023/01/03 03:53:56;;;;;;;8.82;4.30;;;8.00;99.90;;;;;;4923388;29;19925;-83
2023/01/03 03:56:27;;;;;;;8.63;3.45;;;8.00;99.90;;;;;;4930331;29;20023;-85
2023/01/03 03:58:59;;;;;;;9.73;4.30;;;8.00;99.90;;;;;;4932212;29;20054;-84
2023/01/03 04:01:26;;;;;;;7.53;4.00;;;8.00;99.90;;;;;;4931612;29;20031;-83
2023/01/03 04:03:56;;;;;;;12.52;4.60;;;8.00;99.90;;;;;;4932166;29;20032;-86
2023/01/03 04:06:24;;;;;;;9.43;4.25;;;8.10;99.90;;;;;;4927746;29;20023;-83
2023/01/03 04:08:53;;;;;;;8.63;4.75;;;8.00;99.90;;;;;;4927564;29;20027;-83
2023/01/03 04:11:18;;;;;;;8.43;4.03;;;8.00;99.90;;;;;;4924553;29;20043;-83
2023/01/03 04:13:44;;;;;;;7.25;3.90;;;8.00;99.90;;;;;;4928193;29;20035;-82
2023/01/03 04:16:10;;;;;;;7.35;3.58;;;8.00;99.90;;;;;;4927098;29;20528;-83
2023/01/03 04:18:36;;;;;;;5.68;3.55;;;7.90;99.90;;;;;;4925829;29;20028;-84
2023/01/03 04:21:01;;;;;;;11.35;3.88;;;7.90;99.90;;;;;;4928360;29;20039;-82
2023/01/03 04:23:27;;;;;;;9.60;3.72;;;7.90;99.90;;;;;;4925819;29;20773;-83
2023/01/03 04:25:53;;;;;;;7.05;4.13;;;7.80;99.90;;;;;;4926329;29;20032;-83
2023/01/03 04:28:19;;;;;;;7.05;4.78;;;7.80;99.90;;;;;;4921367;29;20028;-84
2023/01/03 04:30:45;;;;;;;7.40;3.85;;;7.80;99.90;;;;;;4927885;29;20396;-83
2023/01/03 04:33:11;;;;;;;6.45;3.95;;;7.80;99.90;;;;;;4927557;29;20427;-83
2023/01/03 04:35:37;;;;;;;12.40;4.68;;;7.80;99.90;;;;;;4924374;29;20056;-82
2023/01/03 04:38:03;;;;;;;7.57;4.18;;;7.70;99.90;;;;;;4925505;29;20066;-84
2023/01/03 04:40:29;;;;;;;6.53;4.20;;;7.70;99.90;;;;;;4922473;29;21847;-83
2023/01/03 04:45:39;;;;;;;10.77;4.47;;;7.70;99.90;;;;;;4928285;29;20051;-84
2023/01/03 04:48:07;;;;;;;21.77;4.82;;;7.70;99.90;;;;;;4927917;29;20063;-85
2023/01/03 04:50:33;;;;;;;12.82;4.82;;;7.60;99.90;;;;;;4929464;29;20036;-85
2023/01/03 04:52:58;;;;;;;11.57;4.32;;;7.60;99.90;;;;;;4924733;29;20042;-84
2023/01/03 04:55:26;;;;;;;12.35;5.93;;;7.70;99.90;;;;;;4932498;29;20051;-83
2023/01/03 04:57:55;;;;;;;18.60;5.18;;;7.60;99.90;;;;;;4924268;29;20432;-84
2023/01/03 05:00:21;;;;;;;8.73;4.20;;;7.60;99.90;;;;;;4930120;29;20028;-85
2023/01/03 05:02:47;;;;;;;13.10;4.72;;;7.60;99.90;;;;;;4929361;29;20029;-83
2023/01/03 05:05:12;;;;;;;14.50;4.90;;;7.50;99.90;;;;;;4921200;29;20066;-85
2023/01/03 05:07:38;;;;;;;9.15;4.03;;;7.50;99.90;;;;;;4927569;29;20034;-84
2023/01/03 05:10:04;;;;;;;7.32;4.03;;;7.50;99.90;;;;;;4926261;28;20047;-85
2023/01/03 05:12:29;;;;;;;8.80;4.00;;;7.40;99.90;;;;;;4932635;29;20434;-85
2023/01/03 05:14:55;;;;;;;14.18;4.60;;;7.30;99.90;;;;;;4926060;29;20070;-84
2023/01/03 05:17:23;;;;;;;8.55;4.50;;;7.30;99.90;;;;;;4932045;29;20087;-83
2023/01/03 05:28:02;;;;;;;6.95;3.88;;;7.40;99.90;;;;;;4923659;29;20043;-85
2023/01/03 05:30:28;;;;;;;6.32;4.05;;;7.40;99.90;;;;;;4925471;29;20039;-86
2023/01/03 05:32:54;;;;;;;16.88;4.28;;;7.40;99.90;;;;;;4925612;29;20492;-84
2023/01/03 05:35:21;;;;;;;6.47;3.25;;;7.40;99.90;;;;;;4924408;29;20024;-82
2023/01/03 05:37:46;;;;;;;8.68;4.05;;;7.30;99.90;;;;;;4922049;29;20461;-84
2023/01/03 05:40:12;;;;;;;5.95;4.38;;;7.30;99.90;;;;;;4924993;29;20040;-85
2023/01/03 05:42:38;;;;;;;5.70;3.67;;;7.30;99.90;;;;;;4924412;29;20224;-84
2023/01/03 05:45:07;;;;;;;12.05;4.28;;;7.20;99.90;;;;;;4921285;29;20118;-84
2023/01/03 05:47:33;;;;;;;5.25;3.40;;;7.20;99.90;;;;;;4921334;29;20087;-85
2023/01/03 05:49:58;;;;;;;4.38;3.45;;;7.10;99.90;;;;;;4923507;29;20079;-85
2023/01/03 05:52:24;;;;;;;10.30;4.28;;;7.10;99.90;;;;;;4927942;29;20284;-85
2023/01/03 05:54:49;;;;;;;6.28;3.40;;;7.00;99.90;;;;;;4928593;29;20409;-82
2023/01/03 05:57:15;;;;;;;3.63;2.88;;;7.00;99.90;;;;;;4924630;29;20118;-83
2023/01/03 05:59:40;;;;;;;11.02;3.60;;;7.00;99.90;;;;;;4922444;29;20377;-85
2023/01/03 06:02:06;;;;;;;4.72;3.20;;;6.90;99.90;;;;;;4924852;29;20055;-84
2023/01/03 06:04:32;;;;;;;11.25;3.90;;;6.90;99.90;;;;;;4925265;29;20031;-83
2023/01/03 06:06:57;;;;;;;13.20;4.68;;;6.80;99.90;;;;;;4918017;29;20193;-82
2023/01/03 06:09:23;;;;;;;5.32;3.50;;;6.80;99.90;;;;;;4925754;29;20031;-83
2023/01/03 06:11:48;;;;;;;6.18;4.10;;;6.70;99.90;;;;;;4928419;29;20039;-83
2023/01/03 06:14:14;;;;;;;6.55;3.67;;;6.70;99.90;;;;;;4918054;29;20149;-83
2023/01/03 06:19:24;;;;;;;9.18;3.92;;;6.60;99.90;;;;;;4925115;29;20368;-82
2023/01/03 06:21:49;;;;;;;10.45;3.40;;;6.60;99.90;;;;;;4922627;29;20118;-82
2023/01/03 06:24:15;;;;;;;5.15;3.70;;;6.50;99.90;;;;;;4926301;29;20468;-82
2023/01/03 06:26:40;;;;;;;8.57;4.35;;;6.50;99.90;;;;;;4927447;29;20031;-82
2023/01/03 06:29:07;;;;;;;7.45;3.42;;;6.50;99.90;;;;;;4926039;29;20028;-82
2023/01/03 06:31:32;;;;;;;5.15;3.95;;;6.50;99.90;;;;;;4923632;29;20563;-82
2023/01/03 06:33:58;;;;;;;6.75;3.42;;;6.40;99.90;;;;;;4922206;29;20237;-82
2023/01/03 06:36:27;;;;;;;6.32;3.60;;;6.50;99.90;;;;;;4923842;29;20020;-83
2023/01/03 06:38:53;;;;;;;8.13;3.65;;;6.40;99.90;;;;;;4927240;29;20094;-82
2023/01/03 06:41:19;;;;;;;7.57;3.28;;;6.40;99.90;;;;;;4919541;29;20599;-83
2023/01/03 06:43:44;;;;;;;9.70;3.80;;;6.40;99.90;;;;;;4917256;29;20084;-83
2023/01/03 06:54:25;;;;;;;8.05;3.50;;;6.30;99.90;;;;;;4923324;29;20083;-84
2023/01/03 06:56:52;;;;;;;6.13;3.65;;;6.40;99.90;;;;;;4921686;29;20028;-82
2023/01/03 06:59:18;;;;;;;7.63;3.42;;;6.40;99.90;;;;;;4924737;29;20020;-85
2023/01/03 07:01:46;;;;;;;8.43;3.45;;;6.50;99.90;;;;;;4921902;29;20051;-84
2023/01/03 07:04:12;;;;;;;6.18;2.95;;;6.60;99.90;;;;;;4923158;29;20027;-83
2023/01/03 07:06:38;;;;;;;6.22;2.85;;;6.60;99.90;;;;;;4920018;29;20075;-82
2023/01/03 07:09:04;;;;;;;4.82;2.90;;;6.60;99.90;;;;;;4923983;29;20028;-82
2023/01/03 07:11:30;;;;;;;9.15;3.40;;;6.60;99.90;;;;;;4926418;29;20373;-83
2023/01/03 07:13:59;;;;;;;8.25;3.28;;;6.60;99.90;;;;;;4919256;29;20040;-82
2023/01/03 07:16:46;;;;;;;5.57;2.30;;;6.60;99.90;;;;;;4925419;28;20036;-81
2023/01/03 07:19:14;;;;;;;5.97;3.05;;;6.60;99.90;;;;;;4922088;29;20079;-82
2023/01/03 07:21:40;;;;;;;6.95;2.85;;;6.50;99.90;;;;;;4919107;29;20456;-82
2023/01/03 07:24:07;;;;;;;6.72;2.90;;;6.40;99.90;;;;;;4925858;29;20035;-82
2023/01/03 07:26:34;;;;;;;7.18;3.10;;;6.40;99.90;;;;;;4916057;29;20027;-83
2023/01/03 07:29:03;;;;;;;5.32;2.63;;;6.40;99.90;;;;;;4925621;29;20131;-82
2023/01/03 07:31:31;;;;;;;3.60;2.47;;;6.40;99.90;;;;;;4925938;29;20134;-82
2023/01/03 07:33:57;;;;;;;5.68;2.70;;;6.30;99.90;;;;;;4922418;29;20516;-83
2023/01/03 07:36:23;;;;;;;7.65;2.42;;;6.30;99.90;;;;;;4925851;29;20070;-82
2023/01/03 07:38:48;;;;;;;7.93;2.72;;;6.20;99.90;;;;;;4925784;29;20465;-82
2023/01/03 07:41:15;;;;;;;8.20;2.88;;;6.20;99.90;;;;;;4922134;29;20436;-82
2023/01/03 07:43:47;;;;;;;2.63;2.10;;;6.30;99.90;;;;;;4923117;29;20032;-82
2023/01/03 07:46:22;;;;;;;5.13;2.70;;;6.20;99.90;;;;;;4924200;29;20087;-83
2023/01/03 07:48:54;;;;;;;15.02;2.80;;;6.20;99.90;;;;;;4924584;29;20040;-82
2023/01/03 07:51:20;;;;;;;7.78;2.30;;;6.20;99.90;;;;;;4923352;29;20040;-83
2023/01/03 07:53:50;;;;;;;12.32;2.58;;;6.20;99.90;;;;;;4925994;29;20036;-83
2023/01/03 07:56:20;;;;;;;6.15;2.70;;;6.30;99.90;;;;;;4919577;29;20032;-82
2023/01/03 07:58:47;;;;;;;6.30;2.55;;;6.40;99.90;;;;;;4923682;29;20060;-82
2023/01/03 08:01:23;;;;;;;7.82;2.97;;;6.40;99.90;;;;;;4927972;29;20106;-82
2023/01/03 08:03:49;;;;;;;16.30;3.05;;;6.50;99.90;;;;;;4918883;29;20036;-83
2023/01/03 08:06:19;;;;;;;14.05;4.70;;;6.50;99.90;;;;;;4919678;29;20082;-83
2023/01/03 08:13:16;;;;;;;9.20;3.38;;;6.50;99.90;;;;;;4924176;29;20119;-83
2023/01/03 08:14:16;;;;;;;10.70;4.13;;;6.50;99.90;;;;;;4925105;29;20127;-83
2023/01/03 08:16:41;;;;;;;8.38;3.42;;;6.50;99.90;;;;;;4924490;29;20115;-82
2023/01/03 08:19:07;;;;;;;10.27;3.10;;;6.50;99.90;;;;;;4917780;29;20033;-81
2023/01/03 08:21:32;;;;;;;9.90;3.30;;;6.60;99.90;;;;;;4919480;29;20122;-83
2023/01/03 08:23:58;;;;;;;7.65;3.10;;;6.50;99.90;;;;;;4920351;29;20020;-83
2023/01/03 08:26:23;;;;;;;8.65;3.15;;;6.50;99.90;;;;;;4918426;29;20043;-84
2023/01/03 08:28:51;;;;;;;7.85;3.15;;;6.50;99.90;;;;;;4921573;29;20126;-83
2023/01/03 08:31:19;;;;;;;5.65;2.28;;;6.50;99.90;;;;;;4921609;29;20046;-85
2023/01/03 08:33:55;;;;;;;10.88;3.53;;;6.50;99.90;;;;;;4919884;28;20136;-82
2023/01/03 08:36:24;;;;;;;9.23;3.13;;;6.50;99.90;;;;;;4927436;29;20035;-82
2023/01/03 08:38:59;;;;;;;9.18;3.10;;;6.60;99.90;;;;;;4925930;29;20028;-82
2023/01/03 08:41:28;;;;;;;9.17;2.97;;;6.60;99.90;;;;;;4928170;29;20166;-82
2023/01/03 08:43:54;;;;;;;5.82;3.13;;;6.60;99.90;;;;;;4924905;29;20098;-82
2023/01/03 08:46:21;;;;;;;11.75;3.15;;;6.60;99.90;;;;;;4924563;29;20039;-83
2023/01/03 08:48:47;;;;;;;9.98;3.35;;;6.60;99.90;;;;;;4926208;29;20475;-83
2023/01/03 08:51:13;;;;;;;7.63;3.45;;;6.60;99.90;;;;;;4922529;29;20401;-84
2023/01/03 08:53:39;;;;;;;5.95;2.97;;;6.60;99.90;;;;;;4920412;29;20107;-82
2023/01/03 08:56:05;;;;;;;10.20;2.92;;;6.60;99.90;;;;;;4929515;29;20288;-84
2023/01/03 08:58:31;;;;;;;8.32;2.83;;;6.60;99.90;;;;;;4927632;29;20385;-83
2023/01/03 09:01:03;;;;;;;4.57;2.63;;;6.60;99.90;;;;;;4924145;29;20032;-82
2023/01/03 09:03:29;;;;;;;6.18;2.90;;;6.60;99.90;;;;;;4928139;29;20043;-83
2023/01/03 09:05:59;;;;;;;4.95;2.40;;;6.70;99.90;;;;;;4925853;29;20088;-82
2023/01/03 09:08:25;;;;;;;9.52;2.92;;;6.70;99.90;;;;;;4923548;29;20035;-83
2023/01/03 09:10:50;;;;;;;5.95;2.47;;;6.70;99.90;;;;;;4929287;29;20090;-83
2023/01/03 09:13:16;;;;;;;4.50;2.15;;;6.70;99.90;;;;;;4922403;29;20035;-83
2023/01/03 09:15:42;;;;;;;10.95;2.33;;;6.70;99.90;;;;;;4921963;29;20032;-82
2023/01/03 09:18:07;;;;;;;6.38;2.65;;;6.70;99.90;;;;;;4926411;29;20047;-83
2023/01/03 09:20:33;;;;;;;9.20;3.22;;;6.70;99.90;;;;;;4926463;29;20118;-83
2023/01/03 09:22:59;;;;;;;6.22;2.53;;;6.70;99.90;;;;;;4923652;29;20032;-83
2023/01/03 09:25:24;;;;;;;4.85;2.88;;;6.80;99.90;;;;;;4926909;29;20024;-84
2023/01/03 09:27:50;;;;;;;6.15;2.38;;;6.80;99.90;;;;;;4925375;29;20118;-83
2023/01/03 09:30:16;;;;;;;3.88;2.28;;;6.80;99.90;;;;;;4926341;29;20471;-82
2023/01/03 09:32:42;;;;;;;7.28;2.53;;;6.90;99.90;;;;;;4926799;29;20043;-83
2023/01/03 09:35:08;;;;;;;7.43;2.22;;;6.90;99.90;;;;;;4923003;29;20028;-83
2023/01/03 09:37:34;;;;;;;5.28;2.22;;;6.80;99.90;;;;;;4916703;29;20027;-83
2023/01/03 09:40:00;;;;;;;6.85;2.42;;;6.90;99.90;;;;;;4917221;29;20019;-83
2023/01/03 09:45:16;;;;;;;12.57;2.70;;;7.00;99.90;;;;;;4922336;29;20070;-83
2023/01/03 09:47:43;;;;;;;8.77;1.88;;;7.10;99.90;;;;;;4922585;29;20055;-83
2023/01/03 09:50:20;;;;;;;6.82;2.38;;;7.10;99.90;;;;;;4923347;29;20485;-83
2023/01/03 10:04:57;;;;;;;9.63;3.55;;;7.20;99.90;;;;;;4919980;29;19961;-82
2023/01/03 10:07:59;;;;;;;9.70;2.75;;;7.20;99.90;;;;;;4920508;29;20028;-84
2023/01/03 10:10:46;;;;;;;6.40;2.65;;;7.20;99.90;;;;;;4920885;29;20072;-83
2023/01/03 10:13:30;;;;;;;6.78;2.58;;;7.20;99.90;;;;;;4922070;29;20500;-86
2023/01/03 10:16:13;;;;;;;9.35;3.00;;;7.30;99.90;;;;;;4924222;29;20457;-82
2023/01/03 10:18:46;;;;;;;5.53;2.58;;;7.30;99.90;;;;;;4928321;29;20027;-83
2023/01/03 10:21:40;;;;;;;6.68;2.90;;;7.30;99.90;;;;;;4921329;29;20425;-82
2023/01/03 10:24:27;;;;;;;7.72;2.47;;;7.30;99.90;;;;;;4923081;29;20028;-84
2023/01/03 10:27:15;;;;;;;8.38;2.90;;;7.20;99.90;;;;;;4925609;29;20082;-86
2023/01/03 10:29:42;;;;;;;6.63;2.63;;;7.30;99.90;;;;;;4923371;29;21604;-85
2023/01/03 10:32:34;;;;;;;2.53;1.95;;;7.30;99.90;;;;;;4922052;29;20032;-84
2023/01/03 10:35:19;;;;;;;7.30;2.35;;;7.30;99.90;;;;;;4924539;29;20027;-82
2023/01/03 10:37:47;;;;;;;8.48;2.63;;;7.20;99.90;;;;;;4927614;29;20479;-83
2023/01/03 10:40:13;;;;;;;3.42;2.47;;;7.30;99.90;;;;;;4927506;29;20685;-83
2023/01/03 10:42:41;;;;;;;4.10;2.30;;;7.30;99.90;;;;;;4930475;29;20593;-83
2023/01/03 10:45:19;;;;;;;6.43;1.90;;;7.40;99.90;;;;;;4926338;29;20620;-85
2023/01/03 10:47:57;;;;;;;6.22;2.28;;;7.40;99.90;;;;;;4924739;29;20610;-85
2023/01/03 10:50:23;;;;;;;3.90;1.92;;;7.50;99.90;;;;;;4927530;29;20066;-84
2023/01/03 10:53:02;;;;;;;9.27;2.40;;;7.50;99.90;;;;;;4920855;29;20032;-83
2023/01/03 10:55:28;;;;;;;7.18;2.47;;;7.50;99.90;;;;;;4928313;29;20066;-83
2023/01/03 10:58:01;;;;;;;7.78;2.08;;;7.50;99.90;;;;;;4919950;29;20445;-84
2023/01/03 11:00:39;;;;;;;5.82;2.00;;;7.50;99.90;;;;;;4914416;29;20028;-85
2023/01/03 11:03:08;;;;;;;5.10;1.67;;;7.60;99.90;;;;;;4913108;29;20119;-83
2023/01/03 11:05:36;;;;;;;10.10;2.10;;;7.60;99.90;;;;;;4914786;29;20047;-83
2023/01/03 11:08:04;;;;;;;5.32;1.98;;;7.60;99.90;;;;;;4921259;29;20111;-84
2023/01/03 11:10:38;;;;;;;6.75;1.88;;;7.70;99.90;;;;;;4919997;29;20781;-84
2023/01/03 11:13:29;;;;;;;3.38;1.48;;;7.70;99.90;;;;;;4924625;29;20107;-84
2023/01/03 11:15:59;;;;;;;6.70;1.88;;;7.70;99.90;;;;;;4921786;29;20024;-83
2023/01/03 11:18:27;;;;;;;1.83;1.60;;;7.70;99.90;;;;;;4925093;29;20107;-84
2023/01/03 11:21:15;;;;;;;12.52;2.20;;;7.80;99.90;;;;;;4921331;29;20036;-85
2023/01/03 11:24:14;;;;;;;2.05;1.25;;;7.80;99.90;;;;;;4924283;29;20027;-85
2023/01/03 11:26:44;;;;;;;4.10;1.48;;;7.80;99.90;;;;;;4922232;29;20028;-85
2023/01/03 11:29:26;;;;;;;5.35;2.47;;;7.90;99.90;;;;;;4920309;29;20036;-85
2023/01/03 11:32:08;;;;;;;9.20;1.70;;;7.90;99.90;;;;;;4925434;29;20082;-84
2023/01/03 11:34:39;;;;;;;5.78;1.40;;;7.90;99.90;;;;;;4924751;28;20036;-86
2023/01/03 11:37:18;;;;;;;3.53;1.98;;;7.90;99.90;;;;;;4922462;29;20024;-85
2023/01/03 11:39:54;;;;;;;7.45;1.48;;;8.00;99.90;;;;;;4915711;29;20028;-85
2023/01/03 11:42:26;;;;;;;3.50;1.42;;;8.00;99.90;;;;;;4921287;29;20094;-85
2023/01/03 11:45:14;;;;;;;5.25;1.85;;;8.00;99.90;;;;;;4923856;29;20128;-84
2023/01/03 11:48:10;;;;;;;5.47;1.50;;;8.00;99.90;;;;;;4924657;29;20096;-84
2023/01/03 11:50:54;;;;;;;10.70;1.52;;;8.00;99.90;;;;;;4918897;29;20135;-85
2023/01/03 11:53:36;;;;;;;10.25;1.73;;;8.00;99.90;;;;;;4924723;29;20038;-85
2023/01/03 11:56:01;;;;;;;9.48;1.98;;;8.00;99.90;;;;;;4923184;29;20035;-84
2023/01/03 11:58:49;;;;;;;10.75;1.70;;;8.00;99.90;;;;;;4924779;29;20492;-86
2023/01/03 12:01:26;;;;;;;3.30;1.10;;;8.10;99.90;;;;;;4928289;28;20039;-84
2023/01/03 12:04:01;;;;;;;7.72;2.13;;;8.10;99.90;;;;;;4925791;29;20042;-85
2023/01/03 12:06:48;;;;;;;10.25;2.08;;;8.10;99.90;;;;;;4926260;29;20432;-84
2023/01/03 12:09:32;;;;;;;5.40;1.60;;;8.20;99.90;;;;;;4924444;29;20534;-85
2023/01/03 12:12:24;;;;;;;8.50;1.60;;;8.30;99.90;;;;;;4925714;29;20040;-84
2023/01/03 12:15:13;;;;;;;8.85;2.58;;;8.30;99.90;;;;;;4924175;29;20031;-83
2023/01/03 12:18:15;;;;;;;12.23;6.78;;;8.30;99.90;;;;;;4929996;29;20028;-83
2023/01/03 12:20:47;;;;;;;19.30;9.40;;;8.30;99.90;;;;;;4931152;29;20047;-85
2023/01/03 12:23:19;;;;;;;3.88;2.13;;;8.30;99.90;;;;;;4924268;29;20556;-85
2023/01/03 12:25:53;;;;;;;4.68;1.25;;;8.30;99.90;;;;;;4927857;29;20031;-84
2023/01/03 12:28:55;;;;;;;20.48;7.93;;;8.30;99.90;;;;;;4924291;28;20028;-84
2023/01/03 12:31:36;;;;;;;14.35;5.85;;;8.30;99.90;;;;;;4915734;29;20365;-83
2023/01/03 12:34:18;;;;;;;9.07;1.83;;;8.40;99.90;;;;;;4925410;29;20548;-84
2023/01/03 12:37:23;;;;;;;5.15;2.00;;;8.40;99.90;;;;;;4926440;29;20034;-84
2023/01/03 12:39:54;;;;;;;3.58;1.23;;;8.50;99.90;;;;;;4926015;29;20072;-84
2023/01/03 12:42:28;;;;;;;6.32;1.70;;;8.50;99.90;;;;;;4922029;29;20032;-84
2023/01/03 12:45:43;;;;;;;12.30;2.13;;;8.50;99.90;;;;;;4922730;29;20024;-84
2023/01/03 12:48:12;;;;;;;12.93;3.65;;;8.50;99.90;;;;;;4904172;29;20052;-83
2023/01/03 12:50:48;;;;;;;4.60;1.35;;;8.60;99.90;;;;;;4923394;29;20031;-84
2023/01/03 12:53:24;;;;;;;9.73;1.92;;;8.60;99.90;;;;;;4927534;29;20028;-84
2023/01/03 12:56:05;;;;;;;7.43;1.90;;;8.60;99.90;;;;;;4922219;29;20365;-84
2023/01/03 12:58:46;;;;;;;6.95;1.60;;;8.50;99.90;;;;;;4925978;28;20433;-85
2023/01/03 13:01:25;;;;;;;8.88;1.60;;;8.50;99.90;;;;;;4925554;29;20481;-85
2023/01/03 13:04:01;;;;;;;7.63;1.90;;;8.40;99.90;;;;;;4925945;29;20032;-84
2023/01/03 13:06:38;;;;;;;2.53;1.15;;;8.50;99.90;;;;;;4923209;29;20055;-84
2023/01/03 13:09:14;;;;;;;8.55;2.05;;;8.40;99.90;;;;;;4929203;29;20384;-85
2023/01/03 13:11:46;;;;;;;6.05;2.58;;;8.50;99.90;;;;;;4928804;29;20043;-86
2023/01/03 13:14:26;;;;;;;4.93;2.10;;;8.50;99.90;;;;;;4918851;29;20059;-84
2023/01/03 13:16:53;;;;;;;3.20;1.38;;;8.50;99.90;;;;;;4933683;29;20087;-84
2023/01/03 13:19:19;;;;;;;4.35;1.85;;;8.50;99.90;;;;;;4925038;29;20110;-85
2023/01/03 13:22:21;;;;;;;3.40;1.90;;;8.50;99.90;;;;;;4924766;29;20110;-84
2023/01/03 13:24:50;;;;;;;5.75;1.70;;;8.60;99.90;;;;;;4918103;29;20119;-84
2023/01/03 13:27:21;;;;;;;8.43;2.40;;;8.60;99.90;;;;;;4927898;29;20036;-84
2023/01/03 13:29:49;;;;;;;5.18;1.90;;;8.50;99.90;;;;;;4922431;29;20032;-85
2023/01/03 13:32:21;;;;;;;5.97;1.73;;;8.60;99.90;;;;;;4923678;29;20032;-84
2023/01/03 13:34:53;;;;;;;9.07;1.90;;;8.50;99.90;;;;;;4924083;29;20123;-84
2023/01/03 13:37:27;;;;;;;3.13;1.50;;;8.50;99.90;;;;;;4925501;29;20035;-84
2023/01/03 13:40:27;;;;;;;2.00;1.63;;;8.50;99.90;;;;;;4919308;29;20038;-83
2023/01/03 13:43:15;;;;;;;3.83;1.48;;;8.50;99.90;;;;;;4923373;29;20148;-84
2023/01/03 13:45:41;;;;;;;5.55;1.48;;;8.50;99.90;;;;;;4926317;29;20091;-84
2023/01/03 13:48:16;;;;;;;5.75;1.45;;;8.50;99.90;;;;;;4923833;29;20135;-84
2023/01/03 13:51:21;;;;;;;3.80;1.50;;;8.50;99.90;;;;;;4922553;29;20052;-84
2023/01/03 13:54:01;;;;;;;7.28;1.42;;;8.50;99.90;;;;;;4923254;29;20135;-86
2023/01/03 13:56:30;;;;;;;6.38;1.60;;;8.50;99.90;;;;;;4921590;29;20028;-84
2023/01/03 13:59:12;;;;;;;12.10;1.80;;;8.60;99.90;;;;;;4926068;29;20063;-84
2023/01/03 14:02:07;;;;;;;6.60;1.77;;;8.50;99.90;;;;;;4921056;29;20023;-84
2023/01/03 14:04:35;;;;;;;5.65;1.60;;;8.50;99.90;;;;;;4931034;29;20054;-84
2023/01/03 14:07:31;;;;;;;6.50;1.88;;;8.40;99.90;;;;;;4925549;29;20084;-84
2023/01/03 14:10:07;;;;;;;3.13;1.17;;;8.40;99.90;;;;;;4929047;29;20047;-83
2023/01/03 14:12:50;;;;;;;;;;;8.30;99.90;;;;;;4928105;29;20040;-83
2023/01/03 14:15:23;;;;;;;3.83;1.50;;;8.30;99.90;;;;;;4922314;29;19910;-84
2023/01/03 14:17:55;;;;;;;3.25;1.48;;;8.30;99.90;;;;;;4921741;29;20028;-84
2023/01/03 14:20:27;;;;;;;7.18;1.70;;;8.30;99.90;;;;;;4923343;29;20035;-85